Stevensville, Virginia
Current Conditions -  °F | °C
As of 11:15 AM on Monday 24 Nov 2014 (Local Time) from KXSA Reporting Station
Scattered Clouds Scattered Clouds  
Wind Chill: 70°   Ceiling: Unl
Heat Index: 70°   Visibility: 10mi
Dew Point: 53°   Wind: 12mph
Humidity: 56%   Direction: 190°S
Pressure: 29.74"   Gusts: 25mph
Location:  37.73°N, 76.92°W
Report Text: KXSA 241615Z AUTO 19010G22KT 160V220 10SM SCT027 21/12 A2974 RMK AO2 LTG DSNT SE T02100119
Loading
Personal Weather Stations






























Interactive Weather Map New forecast layout! Learn more

10-Day Weather Forecast

Advertisements
Track Severe Weather on mobile